Wetterdaten: Woche 23.11.20 - 29.11.20 (KW48)
Datum Zeit Temp. A. Feuchte A. Luftdruck Regen Wind Richtung Taupunkt Windchill Windben
23.11.2020 00:00 -0,1 C 83 % 1028,0 hPa 0,0 l/m 0,0 km/h N -2,6 C -0,1 C 0,0 km/h
23.11.2020 01:00 0,3 C 83 % 1027,4 hPa 0,0 l/m 0,0 km/h N -2,2 C 0,3 C 0,0 km/h
23.11.2020 02:00 0,6 C 83 % 1027,2 hPa 0,0 l/m 0,0 km/h N -1,9 C 0,6 C 0,0 km/h
23.11.2020 03:00 0,8 C 83 % 1027,2 hPa 0,0 l/m 0,0 km/h N -1,8 C 0,8 C 0,0 km/h
23.11.2020 04:00 1,1 C 83 % 1026,9 hPa 0,0 l/m 0,2 km/h N -1,4 C 1,1 C 2,0 km/h
23.11.2020 05:00 0,6 C 83 % 1027,3 hPa 0,0 l/m 0,0 km/h N -2,0 C 0,6 C 0,4 km/h
23.11.2020 06:00 0,7 C 83 % 1028,2 hPa 0,0 l/m 0,0 km/h N -1,9 C 0,7 C 0,0 km/h
23.11.2020 07:00 0,8 C 83 % 1028,1 hPa 0,0 l/m 0,0 km/h N -1,8 C 0,8 C 0,4 km/h
23.11.2020 08:00 1,0 C 83 % 1028,5 hPa 0,0 l/m 0,0 km/h N -1,6 C 1,0 C 0,0 km/h
23.11.2020 09:00 1,5 C 83 % 1028,8 hPa 0,0 l/m 0,0 km/h N -1,1 C 1,5 C 0,0 km/h
23.11.2020 10:00 2,3 C 83 % 1028,7 hPa 0,0 l/m 0,0 km/h N -0,3 C 2,3 C 0,0 km/h
23.11.2020 11:00 3,4 C 83 % 1028,2 hPa 0,0 l/m 0,0 km/h N 0,7 C 3,4 C 0,4 km/h
23.11.2020 12:00 4,2 C 81 % 1027,9 hPa 0,0 l/m 0,1 km/h N 1,1 C 4,2 C 2,0 km/h
23.11.2020 13:00 4,8 C 80 % 1027,6 hPa 0,0 l/m 0,1 km/h N 1,7 C 4,8 C 2,4 km/h
23.11.2020 14:00 7,5 C 75 % 1027,3 hPa 0,0 l/m 5,2 km/h N 3,2 C 7,2 C 22,1 km/h
23.11.2020 15:00 8,8 C 66 % 1027,4 hPa 0,0 l/m 5,6 km/h N 2,8 C 8,7 C 19,7 km/h
23.11.2020 16:00 8,8 C 68 % 1028,1 hPa 0,0 l/m 5,8 km/h N 3,3 C 8,8 C 17,7 km/h
23.11.2020 17:00 8,6 C 70 % 1028,5 hPa 0,0 l/m 1,9 km/h N 3,5 C 8,6 C 9,3 km/h
23.11.2020 18:00 8,4 C 72 % 1029,1 hPa 0,0 l/m 2,3 km/h N 3,7 C 8,4 C 8,8 km/h
23.11.2020 19:00 8,2 C 75 % 1029,5 hPa 0,0 l/m 2,9 km/h N 4,1 C 8,2 C 13,3 km/h
23.11.2020 20:00 7,7 C 79 % 1030,0 hPa 0,0 l/m 0,9 km/h N 4,2 C 7,7 C 9,6 km/h
23.11.2020 21:00 7,3 C 80 % 1030,5 hPa 0,0 l/m 0,6 km/h N 4,1 C 7,3 C 6,4 km/h
23.11.2020 22:00 7,3 C 80 % 1030,8 hPa 0,0 l/m 1,0 km/h N 4,1 C 7,3 C 10,1 km/h
23.11.2020 23:00 6,6 C 80 % 1031,0 hPa 0,0 l/m 0,0 km/h N 3,4 C 6,6 C 1,6 km/h
24.11.2020 00:00 5,5 C 81 % 1031,1 hPa 0,0 l/m 0,0 km/h N 2,5 C 5,5 C 0,4 km/h
24.11.2020 01:00 4,3 C 81 % 1031,1 hPa 0,0 l/m 0,0 km/h N 1,4 C 4,3 C 0,0 km/h
24.11.2020 02:00 3,1 C 82 % 1031,1 hPa 0,0 l/m 0,0 km/h N 0,4 C 3,1 C 0,0 km/h
24.11.2020 03:00 1,3 C 82 % 1031,1 hPa 0,0 l/m 0,0 km/h N -1,4 C 1,3 C 0,0 km/h
24.11.2020 04:00 0,1 C 83 % 1031,0 hPa 0,0 l/m 0,0 km/h N -2,5 C 0,1 C 0,0 km/h
24.11.2020 05:00 -0,5 C 83 % 1031,2 hPa 0,0 l/m 0,0 km/h N -3,0 C -0,5 C 0,0 km/h
24.11.2020 06:00 -0,2 C 83 % 1031,3 hPa 0,0 l/m 0,0 km/h N -2,8 C -0,2 C 0,0 km/h
24.11.2020 07:00 -0,4 C 82 % 1031,4 hPa 0,0 l/m 0,0 km/h N -3,0 C -0,4 C 0,0 km/h
24.11.2020 08:00 0,0 C 82 % 1031,5 hPa 0,3 l/m 0,0 km/h N -2,7 C 0,0 C 0,0 km/h
24.11.2020 09:00 1,0 C 82 % 1031,3 hPa 0,0 l/m 0,0 km/h N -1,7 C 1,0 C 0,0 km/h
24.11.2020 10:00 1,9 C 82 % 1031,3 hPa 0,0 l/m 0,0 km/h N -0,8 C 1,9 C 0,4 km/h
24.11.2020 11:00 2,2 C 82 % 1030,6 hPa 0,0 l/m 0,0 km/h N -0,6 C 2,2 C 0,0 km/h
24.11.2020 12:00 2,3 C 82 % 1029,7 hPa 0,0 l/m 0,0 km/h N -0,4 C 2,3 C 0,0 km/h
24.11.2020 13:00 2,6 C 82 % 1028,6 hPa 0,0 l/m 0,0 km/h N -0,2 C 2,6 C 0,0 km/h
24.11.2020 14:00 3,0 C 82 % 1027,9 hPa 0,0 l/m 0,0 km/h N 0,3 C 3,0 C 0,4 km/h
24.11.2020 15:00 3,1 C 82 % 1027,8 hPa 0,0 l/m 0,0 km/h N 0,4 C 3,1 C 0,4 km/h
24.11.2020 16:00 2,4 C 82 % 1027,8 hPa 0,0 l/m 0,0 km/h N -0,4 C 2,4 C 0,0 km/h
24.11.2020 17:00 2,0 C 82 % 1027,6 hPa 0,0 l/m 0,0 km/h N -0,7 C 2,0 C 0,0 km/h
24.11.2020 18:00 1,6 C 82 % 1027,6 hPa 0,0 l/m 0,0 km/h N -1,1 C 1,6 C 0,0 km/h
24.11.2020 19:00 1,3 C 83 % 1027,4 hPa 0,0 l/m 0,0 km/h N -1,3 C 1,3 C 0,0 km/h
24.11.2020 20:00 1,7 C 83 % 1026,7 hPa 0,0 l/m 0,3 km/h N -0,8 C 1,7 C 4,0 km/h
24.11.2020 21:00 1,7 C 83 % 1026,2 hPa 0,0 l/m 0,1 km/h N -0,8 C 1,7 C 2,0 km/h
24.11.2020 22:00 1,6 C 83 % 1025,7 hPa 0,0 l/m 0,0 km/h N -1,0 C 1,6 C 0,0 km/h
24.11.2020 23:00 1,5 C 83 % 1025,6 hPa 0,0 l/m 0,0 km/h N -1,0 C 1,5 C 0,0 km/h
25.11.2020 00:00 1,5 C 83 % 1025,4 hPa 0,0 l/m 0,0 km/h N -1,1 C 1,5 C 1,2 km/h
25.11.2020 01:00 1,6 C 83 % 1025,2 hPa 0,0 l/m 0,1 km/h N -1,0 C 1,6 C 2,8 km/h
25.11.2020 02:00 1,2 C 83 % 1025,2 hPa 0,0 l/m 0,3 km/h N -1,4 C 1,2 C 4,0 km/h
25.11.2020 03:00 1,2 C 83 % 1024,9 hPa 0,0 l/m 0,8 km/h N -1,4 C 1,2 C 5,2 km/h
25.11.2020 04:00 1,3 C 83 % 1024,9 hPa 0,0 l/m 0,3 km/h N -1,3 C 1,3 C 5,2 km/h
25.11.2020 05:00 1,3 C 83 % 1024,9 hPa 0,0 l/m 0,2 km/h N -1,3 C 1,3 C 2,4 km/h
25.11.2020 06:00 0,9 C 83 % 1024,9 hPa 0,0 l/m 0,6 km/h N -1,6 C 0,9 C 5,2 km/h
25.11.2020 07:00 0,7 C 83 % 1025,1 hPa 0,0 l/m 0,4 km/h N -1,8 C 0,7 C 4,0 km/h
25.11.2020 08:00 0,8 C 83 % 1025,3 hPa 0,0 l/m 0,2 km/h N -1,8 C 0,8 C 2,8 km/h
25.11.2020 09:00 1,0 C 83 % 1025,3 hPa 0,0 l/m 0,1 km/h N -1,5 C 1,0 C 1,6 km/h
25.11.2020 10:00 1,2 C 83 % 1025,3 hPa 0,0 l/m 0,0 km/h N -1,3 C 1,2 C 0,8 km/h
25.11.2020 11:00 1,5 C 83 % 1024,9 hPa 0,0 l/m 0,0 km/h N -1,0 C 1,5 C 0,8 km/h
25.11.2020 12:00 2,0 C 83 % 1024,6 hPa 0,0 l/m 0,0 km/h N -0,6 C 2,0 C 0,8 km/h
25.11.2020 13:00 2,3 C 83 % 1024,4 hPa 0,0 l/m 0,0 km/h N -0,4 C 2,3 C 1,6 km/h
25.11.2020 14:00 2,2 C 82 % 1024,3 hPa 0,0 l/m 0,0 km/h N -0,5 C 2,2 C 0,0 km/h
25.11.2020 15:00 2,0 C 82 % 1024,5 hPa 0,0 l/m 0,0 km/h N -0,7 C 2,0 C 0,4 km/h
25.11.2020 16:00 1,9 C 82 % 1024,7 hPa 0,0 l/m 0,0 km/h N -0,8 C 1,9 C 0,0 km/h
25.11.2020 17:00 1,8 C 82 % 1024,8 hPa 0,0 l/m 0,0 km/h N -0,9 C 1,8 C 0,0 km/h
25.11.2020 18:00 1,7 C 82 % 1025,0 hPa 0,0 l/m 0,0 km/h N -1,0 C 1,7 C 0,0 km/h
25.11.2020 19:00 1,6 C 82 % 1025,1 hPa 0,0 l/m 0,0 km/h N -1,1 C 1,6 C 0,0 km/h
25.11.2020 20:00 1,6 C 82 % 1025,0 hPa 0,0 l/m 0,0 km/h N -1,2 C 1,6 C 0,0 km/h
25.11.2020 21:00 1,5 C 82 % 1025,2 hPa 0,0 l/m 0,0 km/h N -1,2 C 1,5 C 0,0 km/h
25.11.2020 22:00 1,4 C 82 % 1025,1 hPa 0,0 l/m 0,0 km/h N -1,3 C 1,4 C 0,0 km/h
25.11.2020 23:00 1,5 C 83 % 1025,3 hPa 0,0 l/m 0,0 km/h N -1,1 C 1,5 C 0,0 km/h
26.11.2020 00:00 1,5 C 83 % 1025,2 hPa 0,0 l/m 0,0 km/h N -1,1 C 1,5 C 0,0 km/h
26.11.2020 01:00 1,3 C 83 % 1025,1 hPa 0,0 l/m 0,0 km/h N -1,2 C 1,3 C 0,0 km/h
26.11.2020 02:00 1,3 C 83 % 1025,1 hPa 0,0 l/m 0,0 km/h N -1,3 C 1,3 C 0,0 km/h
26.11.2020 03:00 1,0 C 83 % 1025,1 hPa 0,0 l/m 0,0 km/h N -1,5 C 1,0 C 0,0 km/h
26.11.2020 04:00 0,9 C 83 % 1025,4 hPa 0,0 l/m 0,0 km/h N -1,6 C 0,9 C 0,0 km/h
26.11.2020 05:00 0,8 C 83 % 1025,4 hPa 0,0 l/m 0,0 km/h N -1,8 C 0,8 C 0,0 km/h
26.11.2020 06:00 0,7 C 83 % 1025,5 hPa 0,0 l/m 0,0 km/h N -1,8 C 0,7 C 0,0 km/h
26.11.2020 07:00 0,7 C 83 % 1025,8 hPa 0,0 l/m 0,0 km/h N -1,8 C 0,7 C 0,0 km/h
26.11.2020 08:00 0,7 C 83 % 1026,2 hPa 0,0 l/m 0,0 km/h N -1,8 C 0,7 C 0,0 km/h
26.11.2020 09:00 0,8 C 83 % 1026,2 hPa 0,0 l/m 0,0 km/h N -1,8 C 0,8 C 0,0 km/h
26.11.2020 10:00 0,8 C 83 % 1026,3 hPa 0,0 l/m 0,0 km/h N -1,8 C 0,8 C 1,2 km/h
26.11.2020 11:00 1,0 C 83 % 1026,2 hPa 0,0 l/m 0,0 km/h N -1,6 C 1,0 C 0,4 km/h
26.11.2020 12:00 1,2 C 83 % 1025,8 hPa 0,0 l/m 0,0 km/h N -1,4 C 1,2 C 0,8 km/h
26.11.2020 13:00 1,5 C 83 % 1025,3 hPa 0,0 l/m 0,0 km/h N -1,1 C 1,5 C 0,8 km/h
26.11.2020 14:00 1,6 C 82 % 1025,2 hPa 0,0 l/m 0,0 km/h N -1,1 C 1,6 C 0,8 km/h
26.11.2020 15:00 1,8 C 82 % 1024,9 hPa 0,0 l/m 0,0 km/h N -1,0 C 1,8 C 0,0 km/h
26.11.2020 16:00 1,5 C 82 % 1025,0 hPa 0,0 l/m 0,0 km/h N -1,2 C 1,5 C 0,0 km/h
26.11.2020 17:00 1,3 C 82 % 1025,1 hPa 0,0 l/m 0,0 km/h N -1,4 C 1,3 C 0,0 km/h
26.11.2020 18:00 1,2 C 82 % 1025,1 hPa 0,0 l/m 0,0 km/h N -1,5 C 1,2 C 0,0 km/h
26.11.2020 19:00 1,2 C 82 % 1025,0 hPa 0,0 l/m 0,0 km/h N -1,5 C 1,2 C 0,0 km/h
26.11.2020 20:00 1,2 C 83 % 1024,9 hPa 0,0 l/m 0,0 km/h N -1,5 C 1,2 C 0,0 km/h
26.11.2020 21:00 1,1 C 83 % 1025,0 hPa 0,0 l/m 0,0 km/h N -1,5 C 1,1 C 0,0 km/h
26.11.2020 22:00 1,1 C 83 % 1025,0 hPa 0,0 l/m 0,0 km/h N -1,5 C 1,1 C 0,0 km/h
26.11.2020 23:00 1,1 C 83 % 1024,9 hPa 0,0 l/m 0,0 km/h N -1,5 C 1,1 C 0,0 km/h
27.11.2020 00:00 1,0 C 83 % 1024,7 hPa 0,0 l/m 0,0 km/h N -1,6 C 1,0 C 0,0 km/h
27.11.2020 01:00 0,9 C 83 % 1024,4 hPa 0,0 l/m 0,0 km/h N -1,6 C 0,9 C 0,0 km/h
27.11.2020 02:00 0,8 C 83 % 1024,2 hPa 0,0 l/m 0,0 km/h N -1,7 C 0,8 C 0,4 km/h
27.11.2020 03:00 0,7 C 83 % 1023,9 hPa 0,0 l/m 0,1 km/h N -1,9 C 0,7 C 2,0 km/h
27.11.2020 04:00 0,6 C 83 % 1023,9 hPa 0,0 l/m 0,0 km/h N -1,9 C 0,6 C 1,6 km/h
27.11.2020 05:00 0,5 C 83 % 1023,8 hPa 0,0 l/m 0,0 km/h N -2,0 C 0,5 C 0,0 km/h
27.11.2020 06:00 0,5 C 83 % 1023,9 hPa 0,0 l/m 0,0 km/h N -2,0 C 0,5 C 0,4 km/h
27.11.2020 07:00 0,5 C 83 % 1024,4 hPa 0,0 l/m 0,2 km/h N -2,0 C 0,5 C 2,8 km/h
27.11.2020 08:00 0,6 C 83 % 1024,9 hPa 0,0 l/m 0,4 km/h N -2,0 C 0,6 C 4,0 km/h
27.11.2020 09:00 0,8 C 83 % 1025,0 hPa 0,0 l/m 0,3 km/h N -1,8 C 0,8 C 3,6 km/h
27.11.2020 10:00 1,1 C 83 % 1024,9 hPa 0,0 l/m 0,4 km/h N -1,5 C 1,1 C 4,8 km/h
27.11.2020 11:00 1,2 C 83 % 1024,3 hPa 0,0 l/m 0,8 km/h N -1,3 C 1,2 C 3,6 km/h
27.11.2020 12:00 1,5 C 83 % 1024,0 hPa 0,0 l/m 0,3 km/h N -1,0 C 1,5 C 2,0 km/h
27.11.2020 13:00 1,5 C 83 % 1023,7 hPa 0,0 l/m 0,3 km/h N -1,1 C 1,5 C 3,6 km/h
27.11.2020 14:00 1,8 C 83 % 1023,3 hPa 0,0 l/m 0,1 km/h N -0,8 C 1,8 C 2,0 km/h
27.11.2020 15:00 1,8 C 83 % 1023,4 hPa 0,0 l/m 0,0 km/h N -0,7 C 1,8 C 0,0 km/h
27.11.2020 16:00 1,7 C 83 % 1023,5 hPa 0,0 l/m 0,0 km/h N -0,9 C 1,7 C 0,0 km/h
27.11.2020 17:00 1,4 C 83 % 1023,5 hPa 0,0 l/m 0,0 km/h N -1,1 C 1,4 C 0,4 km/h
27.11.2020 18:00 1,3 C 83 % 1023,8 hPa 0,0 l/m 0,0 km/h N -1,3 C 1,3 C 1,2 km/h
27.11.2020 19:00 1,3 C 83 % 1023,7 hPa 0,0 l/m 0,0 km/h N -1,3 C 1,3 C 0,0 km/h
27.11.2020 20:00 1,3 C 83 % 1023,8 hPa 0,0 l/m 0,0 km/h N -1,3 C 1,3 C 0,0 km/h
27.11.2020 21:00 1,3 C 83 % 1023,8 hPa 0,0 l/m 0,0 km/h N -1,2 C 1,3 C 0,8 km/h
27.11.2020 22:00 1,3 C 83 % 1023,5 hPa 0,0 l/m 0,0 km/h N -1,3 C 1,3 C 0,0 km/h
27.11.2020 23:00 1,3 C 83 % 1023,2 hPa 0,0 l/m 0,0 km/h N -1,3 C 1,3 C 0,0 km/h
28.11.2020 00:00 1,3 C 82 % 1022,8 hPa 0,0 l/m 0,0 km/h N -1,4 C 1,3 C 0,8 km/h
28.11.2020 01:00 1,2 C 82 % 1022,5 hPa 0,0 l/m 0,2 km/h N -1,5 C 1,2 C 3,6 km/h
28.11.2020 02:00 1,0 C 82 % 1022,6 hPa 0,0 l/m 0,1 km/h N -1,7 C 1,0 C 2,4 km/h
28.11.2020 03:00 0,8 C 82 % 1022,2 hPa 0,0 l/m 0,6 km/h N -1,9 C 0,8 C 5,2 km/h
28.11.2020 04:00 0,7 C 82 % 1021,9 hPa 0,0 l/m 0,0 km/h N -2,0 C 0,7 C 0,4 km/h
28.11.2020 05:00 0,6 C 82 % 1021,7 hPa 0,0 l/m 0,0 km/h N -2,1 C 0,6 C 0,0 km/h
28.11.2020 06:00 0,6 C 82 % 1021,9 hPa 0,0 l/m 0,0 km/h N -2,1 C 0,6 C 0,8 km/h
28.11.2020 07:00 0,7 C 82 % 1021,9 hPa 0,0 l/m 0,0 km/h N -2,0 C 0,7 C 1,2 km/h
28.11.2020 08:00 0,9 C 82 % 1022,1 hPa 0,0 l/m 0,5 km/h N -1,8 C 0,9 C 3,6 km/h
28.11.2020 09:00 0,9 C 82 % 1022,5 hPa 0,0 l/m 0,1 km/h N -1,8 C 0,9 C 3,6 km/h
28.11.2020 10:00 0,9 C 82 % 1022,7 hPa 0,0 l/m 0,2 km/h N -1,8 C 0,9 C 4,0 km/h
28.11.2020 11:00 0,9 C 82 % 1022,5 hPa 0,0 l/m 0,2 km/h N -1,8 C 0,9 C 4,8 km/h
28.11.2020 12:00 1,3 C 82 % 1022,3 hPa 0,0 l/m 0,6 km/h N -1,5 C 1,3 C 6,4 km/h
28.11.2020 13:00 1,8 C 82 % 1021,7 hPa 0,0 l/m 0,4 km/h N -0,9 C 1,8 C 5,2 km/h
28.11.2020 14:00 2,5 C 83 % 1021,4 hPa 0,0 l/m 1,2 km/h N -0,1 C 2,5 C 8,1 km/h
28.11.2020 15:00 2,2 C 83 % 1022,0 hPa 0,0 l/m 1,5 km/h N -0,4 C 2,2 C 8,9 km/h
28.11.2020 16:00 2,1 C 83 % 1022,5 hPa 0,0 l/m 0,5 km/h N -0,5 C 2,1 C 4,8 km/h
28.11.2020 17:00 2,0 C 83 % 1022,5 hPa 0,0 l/m 0,0 km/h N -0,6 C 2,0 C 1,6 km/h
28.11.2020 18:00 1,4 C 83 % 1022,8 hPa 0,0 l/m 0,0 km/h N -1,2 C 1,4 C 0,0 km/h
28.11.2020 19:00 1,5 C 83 % 1023,1 hPa 0,0 l/m 0,0 km/h N -1,0 C 1,5 C 0,4 km/h
28.11.2020 20:00 1,9 C 83 % 1023,3 hPa 0,0 l/m 0,0 km/h N -0,7 C 1,9 C 0,0 km/h
28.11.2020 21:00 1,9 C 83 % 1023,1 hPa 0,0 l/m 0,0 km/h N -0,6 C 1,9 C 0,0 km/h
28.11.2020 22:00 1,9 C 83 % 1023,0 hPa 0,0 l/m 0,0 km/h N -0,6 C 1,9 C 0,0 km/h
28.11.2020 23:00 2,0 C 83 % 1023,0 hPa 0,0 l/m 0,0 km/h N -0,7 C 2,0 C 2,4 km/h
29.11.2020 00:00 2,4 C 80 % 1022,9 hPa 0,0 l/m 0,1 km/h N -0,8 C 2,4 C 1,6 km/h
29.11.2020 01:00 1,9 C 78 % 1022,7 hPa 0,0 l/m 0,0 km/h N -1,5 C 1,9 C 0,0 km/h
29.11.2020 02:00 0,0 C 79 % 1022,8 hPa 0,0 l/m 0,0 km/h N -3,2 C 0,0 C 0,0 km/h
29.11.2020 03:00 0,6 C 82 % 1022,6 hPa 0,0 l/m 0,5 km/h N -2,2 C 0,6 C 4,0 km/h
29.11.2020 04:00 1,7 C 80 % 1022,4 hPa 0,0 l/m 0,4 km/h N -1,4 C 1,7 C 6,0 km/h
29.11.2020 05:00 1,4 C 79 % 1022,5 hPa 0,0 l/m 0,1 km/h N -1,9 C 1,4 C 2,8 km/h
29.11.2020 06:00 1,2 C 80 % 1022,6 hPa 0,0 l/m 0,4 km/h N -1,9 C 1,2 C 4,0 km/h
29.11.2020 07:00 0,6 C 80 % 1022,8 hPa 0,0 l/m 0,2 km/h N -2,4 C 0,6 C 3,6 km/h
29.11.2020 08:00 0,5 C 82 % 1023,0 hPa 0,0 l/m 0,9 km/h N -2,2 C 0,5 C 5,2 km/h
29.11.2020 09:00 2,3 C 79 % 1023,0 hPa 0,0 l/m 3,1 km/h N -1,0 C 2,3 C 13,3 km/h
29.11.2020 10:00 3,2 C 75 % 1023,0 hPa 0,0 l/m 3,7 km/h N -0,9 C 3,2 C 15,3 km/h
29.11.2020 11:00 3,9 C 71 % 1022,5 hPa 0,0 l/m 4,2 km/h N -0,9 C 3,9 C 17,7 km/h
29.11.2020 12:00 4,2 C 69 % 1022,3 hPa 0,0 l/m 3,4 km/h N -1,1 C 4,2 C 15,3 km/h
29.11.2020 13:00 4,3 C 67 % 1022,3 hPa 0,0 l/m 4,6 km/h N -1,4 C 4,3 C 18,9 km/h
29.11.2020 14:00 4,3 C 65 % 1022,0 hPa 0,0 l/m 2,6 km/h N -1,7 C 4,3 C 12,1 km/h
29.11.2020 15:00 4,3 C 66 % 1022,3 hPa 0,0 l/m 0,8 km/h N -1,5 C 4,3 C 8,4 km/h
29.11.2020 16:00 4,0 C 69 % 1022,4 hPa 0,0 l/m 0,6 km/h N -1,3 C 4,0 C 7,6 km/h
29.11.2020 17:00 3,5 C 72 % 1022,9 hPa 0,0 l/m 2,8 km/h N -1,1 C 3,5 C 16,9 km/h
29.11.2020 18:00 3,2 C 72 % 1023,2 hPa 0,0 l/m 2,8 km/h N -1,3 C 3,2 C 14,9 km/h
29.11.2020 19:00 3,2 C 71 % 1023,6 hPa 0,0 l/m 2,9 km/h N -1,5 C 3,2 C 14,1 km/h
29.11.2020 20:00 3,4 C 70 % 1023,6 hPa 0,0 l/m 3,3 km/h N -1,5 C 3,4 C 16,5 km/h
29.11.2020 21:00 3,2 C 71 % 1024,0 hPa 0,0 l/m 1,1 km/h N -1,5 C 3,2 C 8,0 km/h
29.11.2020 22:00 3,4 C 70 % 1024,2 hPa 0,0 l/m 2,4 km/h N -1,5 C 3,4 C 13,3 km/h
29.11.2020 23:00 3,3 C 71 % 1024,3 hPa 0,0 l/m 2,6 km/h N -1,5 C 3,3 C 11,3 km/h
Min-Datum _ 24.11.20 29.11.20 28.11.20 - 23.11.20 - 29.11.20 24.11.20 23.11.20
_ Min-Zeit 05:15 14:30 14:00 - 00:00 - 02:45 05:15 00:00
Minimum _ -0,6 C 64 % 1021,2 hPa - 0,0 km/h - -3,5 C -0,6 C 0,0 km/h
Max-Datum _ 23.11.20 23.11.20 24.11.20 24.11.20 23.11.20 - 23.11.20 23.11.20 23.11.20
_ Max-Zeit 15:45 00:00 08:00 08:30 14:45 - 20:00 16:00 14:45
Maximum _ 8,9 C 83 % 1031,7 hPa 0,3 l/m 8,1 km/h
N
- 4,3 C 8,9 C 29,0 km/h
N
Durchschnitt _ 2,0 C 81 % 1025,3 hPa #0,3 l/m 0,5 km/h N -1,0 C 2,0 C 3,0 km/h